This is the latest recevied weather packets stored in our database for station/object SA7AHC. If no packets are shown the sender has not sent any weather packets the latest 10 day(s).
| Time | Temp. | Humidity | Pressure | Rain* | Wind** | Luminosity | Snow |
|---|---|---|---|---|---|---|---|
| 1777485756 | 9.44° C | 49% | 1029.3 hPa | 0 mm | - | 12 W/m² | - |
| 1777485156 | 10.56° C | 48% | 1029.3 hPa | 0 mm | - | 14 W/m² | - |
| 1777484552 | 11.11° C | 48% | 1029.3 hPa | 0 mm | - | 18 W/m² | - |
| 1777483948 | 11.67° C | 47% | 1029.3 hPa | 0 mm | - | 23 W/m² | - |
| 1777483349 | 12.22° C | 44% | 1029.2 hPa | 0 mm | - | 30 W/m² | - |
| 1777482747 | 13.89° C | 41% | 1029.3 hPa | 0 mm | - | 54 W/m² | - |
| 1777482145 | 14.44° C | 37% | 1029.3 hPa | 0 mm | - | 84 W/m² | - |
| 1777481544 | 14.44° C | 36% | 1029.2 hPa | 0 mm | - | 139 W/m² | - |
| 1777480947 | 14.44° C | 35% | 1029.3 hPa | 0 mm | - | 139 W/m² | - |
| 1777480347 | 15° C | 35% | 1029.3 hPa | 0 mm | - | 81 W/m² | - |
| 1777479758 | 15° C | 35% | 1029.3 hPa | 0 mm | - | 239 W/m² | - |
| 1777479142 | 15.56° C | 34% | 1029.4 hPa | 0 mm | - | 283 W/m² | - |
| 1777478543 | 15° C | 35% | 1029.4 hPa | 0 mm | - | 313 W/m² | - |
| 1777477940 | 14.44° C | 37% | 1029.4 hPa | 0 mm | - | 353 W/m² | - |
| 1777477328 | 13.33° C | 37% | 1029.4 hPa | 0 mm | - | 84 W/m² | - |
| 1777476727 | 15° C | 35% | 1029.5 hPa | 0 mm | - | 84 W/m² | - |
| 1777476131 | 15.56° C | 33% | 1029.7 hPa | 0 mm | - | 84 W/m² | - |
| 1777475527 | 15.56° C | 34% | 1029.6 hPa | 0 mm | - | 455 W/m² | - |
| 1777474930 | 15° C | 33% | 1029.8 hPa | 0 mm | - | 404 W/m² | - |
| 1777474324 | 15.56° C | 34% | 1030 hPa | 0 mm | - | 496 W/m² | - |
| 1777473724 | 15.56° C | 35% | 1030 hPa | 0 mm | - | 476 W/m² | - |
| 1777473123 | 15.56° C | 37% | 1029.9 hPa | 0 mm | - | 299 W/m² | - |
| 1777472526 | 16.11° C | 34% | 1030.1 hPa | 0 mm | - | 443 W/m² | - |
| 1777471926 | 15° C | 37% | 1030 hPa | 0 mm | - | 587 W/m² | - |
| 1777471329 | 14.44° C | 35% | 1030.3 hPa | 0 mm | - | 204 W/m² | - |
* Rain latest hour (hover to see other rain measurements)
** Current wind speed in m/s (hover to see current wind gust speed)